VIV321 MMSM-MMUN
Flight info
| Callsign | VIV321 |
|---|---|
| Flight time | 1h 45m |
| Altitude | 35000 |
| Route | NOXOS2H NOXOS UT155 ELURA DCT XUDUN XUDUN1A |
| Aircraft | A321/M-SDE3FGHIRWY/LB1 |
Departure
| Time | 2026-04-25 12:22 |
|---|---|
| Airport | Felipe Ángeles International Airport (MMSM) |
Arrival
| Time | 2026-04-25 14:07 |
|---|---|
| Airport | Cancún International Airport (MMUN) |
| Time | Latitude | Longitude | Altitude | Speed | Heading |
|---|---|---|---|---|---|
| 2026-04-25 12:06 | 19.73236 | -99.02475 | 7377 ft | 0 kts | 320° |
| 2026-04-25 12:08 | 19.73220 | -99.02462 | 7377 ft | 4 kts | 320° |
| 2026-04-25 12:08 | 19.73204 | -99.02448 | 7377 ft | 4 kts | 319° |
| 2026-04-25 12:09 | 19.73184 | -99.02428 | 7377 ft | 4 kts | 317° |
| 2026-04-25 12:09 | 19.73164 | -99.02413 | 7377 ft | 4 kts | 358° |
| 2026-04-25 12:09 | 19.73151 | -99.02422 | 7376 ft | 4 kts | 49° |
| 2026-04-25 12:09 | 19.73141 | -99.02433 | 7376 ft | 0 kts | 49° |
| 2026-04-25 12:12 | 19.73150 | -99.02422 | 7377 ft | 4 kts | 49° |
| 2026-04-25 12:12 | 19.73175 | -99.02392 | 7376 ft | 7 kts | 49° |
| 2026-04-25 12:13 | 19.73215 | -99.02344 | 7377 ft | 10 kts | 47° |
| 2026-04-25 12:13 | 19.73271 | -99.02283 | 7377 ft | 12 kts | 46° |
| 2026-04-25 12:13 | 19.73329 | -99.02209 | 7377 ft | 14 kts | 51° |
| 2026-04-25 12:13 | 19.73397 | -99.02125 | 7377 ft | 14 kts | 44° |
| 2026-04-25 12:14 | 19.73453 | -99.02059 | 7377 ft | 12 kts | 48° |
| 2026-04-25 12:14 | 19.73511 | -99.01990 | 7377 ft | 13 kts | 48° |
| 2026-04-25 12:14 | 19.73571 | -99.01917 | 7377 ft | 14 kts | 49° |
| 2026-04-25 12:14 | 19.73632 | -99.01841 | 7377 ft | 13 kts | 50° |
| 2026-04-25 12:15 | 19.73693 | -99.01762 | 7377 ft | 15 kts | 51° |
| 2026-04-25 12:15 | 19.73764 | -99.01670 | 7377 ft | 17 kts | 46° |
| 2026-04-25 12:15 | 19.73843 | -99.01580 | 7377 ft | 16 kts | 47° |
| 2026-04-25 12:15 | 19.73879 | -99.01485 | 7376 ft | 15 kts | 105° |
| 2026-04-25 12:16 | 19.73912 | -99.01378 | 7376 ft | 17 kts | 51° |
| 2026-04-25 12:16 | 19.73994 | -99.01278 | 7377 ft | 19 kts | 49° |
| 2026-04-25 12:16 | 19.74086 | -99.01169 | 7377 ft | 21 kts | 47° |
| 2026-04-25 12:16 | 19.74185 | -99.01050 | 7377 ft | 22 kts | 49° |
| 2026-04-25 12:17 | 19.74290 | -99.00923 | 7377 ft | 24 kts | 49° |
| 2026-04-25 12:17 | 19.74397 | -99.00790 | 7377 ft | 21 kts | 50° |
| 2026-04-25 12:17 | 19.74496 | -99.00665 | 7377 ft | 23 kts | 50° |
| 2026-04-25 12:17 | 19.74603 | -99.00536 | 7376 ft | 22 kts | 49° |
| 2026-04-25 12:18 | 19.74707 | -99.00408 | 7376 ft | 24 kts | 49° |
| 2026-04-25 12:18 | 19.74817 | -99.00275 | 7377 ft | 24 kts | 49° |
| 2026-04-25 12:18 | 19.74928 | -99.00141 | 7377 ft | 24 kts | 49° |
| 2026-04-25 12:18 | 19.75038 | -99.00006 | 7377 ft | 24 kts | 49° |
| 2026-04-25 12:19 | 19.75222 | -98.99781 | 7377 ft | 24 kts | 49° |
| 2026-04-25 12:19 | 19.75366 | -98.99606 | 7377 ft | 24 kts | 49° |
| 2026-04-25 12:19 | 19.75453 | -98.99502 | 7376 ft | 25 kts | 49° |
| 2026-04-25 12:20 | 19.75570 | -98.99359 | 7377 ft | 25 kts | 49° |
| 2026-04-25 12:20 | 19.75654 | -98.99239 | 7377 ft | 17 kts | 77° |
| 2026-04-25 12:20 | 19.75584 | -98.99142 | 7377 ft | 18 kts | 142° |
| 2026-04-25 12:20 | 19.75476 | -98.99119 | 7377 ft | 18 kts | 213° |
| 2026-04-25 12:21 | 19.75396 | -98.99208 | 7377 ft | 31 kts | 229° |
| 2026-04-25 12:21 | 19.75103 | -98.99569 | 7378 ft | 97 kts | 229° |
| 2026-04-25 12:21 | 19.74584 | -99.00202 | 7377 ft | 147 kts | 229° |
| 2026-04-25 12:21 | 19.73792 | -99.01173 | 7377 ft | 191 kts | 229° |
| 2026-04-25 12:22 | 19.72872 | -99.02301 | 7586 ft | 211 kts | 230° |
| 2026-04-25 12:22 | 19.71906 | -99.03448 | 8176 ft | 211 kts | 229° |
| 2026-04-25 12:22 | 19.70929 | -99.04634 | 8874 ft | 211 kts | 229° |
| 2026-04-25 12:22 | 19.69955 | -99.05829 | 9139 ft | 224 kts | 230° |
| 2026-04-25 12:23 | 19.68898 | -99.07126 | 9277 ft | 236 kts | 230° |
| 2026-04-25 12:23 | 19.67811 | -99.08458 | 9408 ft | 245 kts | 230° |
| 2026-04-25 12:23 | 19.66674 | -99.09849 | 9537 ft | 251 kts | 230° |
| 2026-04-25 12:23 | 19.65525 | -99.11255 | 9699 ft | 252 kts | 229° |
| 2026-04-25 12:24 | 19.64629 | -99.12352 | 9833 ft | 252 kts | 229° |
| 2026-04-25 12:24 | 19.63602 | -99.13617 | 9994 ft | 252 kts | 229° |
| 2026-04-25 12:25 | 19.62446 | -99.15028 | 10134 ft | 258 kts | 229° |
| 2026-04-25 12:25 | 19.61223 | -99.16513 | 10251 ft | 275 kts | 229° |
| 2026-04-25 12:25 | 19.59924 | -99.18089 | 10412 ft | 291 kts | 228° |
| 2026-04-25 12:25 | 19.58295 | -99.19373 | 10564 ft | 298 kts | 200° |
| 2026-04-25 12:26 | 19.56247 | -99.19596 | 10721 ft | 300 kts | 169° |
| 2026-04-25 12:26 | 19.54319 | -99.18815 | 10873 ft | 303 kts | 150° |
| 2026-04-25 12:26 | 19.52541 | -99.17556 | 11072 ft | 304 kts | 143° |
| 2026-04-25 12:26 | 19.50859 | -99.16181 | 11398 ft | 307 kts | 142° |
| 2026-04-25 12:27 | 19.49175 | -99.14831 | 11712 ft | 308 kts | 144° |
| 2026-04-25 12:27 | 19.47423 | -99.13519 | 12048 ft | 310 kts | 146° |
| 2026-04-25 12:27 | 19.45649 | -99.12281 | 12369 ft | 312 kts | 148° |
| 2026-04-25 12:27 | 19.43767 | -99.11039 | 12702 ft | 314 kts | 149° |
| 2026-04-25 12:28 | 19.41896 | -99.09839 | 13061 ft | 315 kts | 149° |
| 2026-04-25 12:28 | 19.40678 | -99.09011 | 13341 ft | 317 kts | 141° |
| 2026-04-25 12:28 | 19.39090 | -99.06431 | 13914 ft | 319 kts | 101° |
| 2026-04-25 12:28 | 19.38965 | -99.04880 | 14202 ft | 321 kts | 86° |
| 2026-04-25 12:29 | 19.39239 | -99.02522 | 14634 ft | 325 kts | 77° |
| 2026-04-25 12:29 | 19.39782 | -99.00189 | 15127 ft | 327 kts | 73° |
| 2026-04-25 12:29 | 19.40413 | -98.97864 | 15632 ft | 329 kts | 72° |
| 2026-04-25 12:29 | 19.41233 | -98.94750 | 16298 ft | 332 kts | 73° |
| 2026-04-25 12:30 | 19.41621 | -98.93145 | 16637 ft | 334 kts | 74° |
| 2026-04-25 12:30 | 19.42160 | -98.90746 | 17136 ft | 335 kts | 75° |
| 2026-04-25 12:30 | 19.42660 | -98.88355 | 17626 ft | 336 kts | 76° |
| 2026-04-25 12:30 | 19.43153 | -98.85898 | 18145 ft | 337 kts | 76° |
| 2026-04-25 12:31 | 19.43634 | -98.83461 | 18641 ft | 338 kts | 76° |
| 2026-04-25 12:31 | 19.44138 | -98.81063 | 19138 ft | 338 kts | 71° |
| 2026-04-25 12:31 | 19.44900 | -98.78719 | 19633 ft | 336 kts | 66° |
| 2026-04-25 12:31 | 19.45728 | -98.76394 | 20101 ft | 338 kts | 66° |
| 2026-04-25 12:32 | 19.46579 | -98.74017 | 20242 ft | 351 kts | 66° |
| 2026-04-25 12:32 | 19.47336 | -98.71507 | 20370 ft | 365 kts | 75° |
| 2026-04-25 12:32 | 19.47718 | -98.68802 | 20498 ft | 379 kts | 85° |
| 2026-04-25 12:32 | 19.47687 | -98.65958 | 20627 ft | 392 kts | 91° |
| 2026-04-25 12:33 | 19.47554 | -98.63041 | 20753 ft | 402 kts | 91° |
| 2026-04-25 12:33 | 19.47423 | -98.60038 | 20887 ft | 413 kts | 91° |
| 2026-04-25 12:33 | 19.47294 | -98.56984 | 21169 ft | 418 kts | 90° |
| 2026-04-25 12:33 | 19.47165 | -98.53886 | 21541 ft | 422 kts | 90° |
| 2026-04-25 12:34 | 19.47038 | -98.50769 | 21925 ft | 425 kts | 91° |
| 2026-04-25 12:34 | 19.46908 | -98.47628 | 22294 ft | 428 kts | 91° |
| 2026-04-25 12:34 | 19.46775 | -98.44457 | 22641 ft | 431 kts | 91° |
| 2026-04-25 12:34 | 19.46685 | -98.42358 | 22869 ft | 433 kts | 90° |
| 2026-04-25 12:35 | 19.46911 | -98.38099 | 23304 ft | 433 kts | 78° |
| 2026-04-25 12:35 | 19.47665 | -98.35011 | 23627 ft | 433 kts | 68° |
| 2026-04-25 12:35 | 19.48760 | -98.32030 | 23930 ft | 435 kts | 66° |
| 2026-04-25 12:35 | 19.49875 | -98.29036 | 24239 ft | 438 kts | 66° |
| 2026-04-25 12:36 | 19.50993 | -98.26021 | 24548 ft | 441 kts | 66° |
| 2026-04-25 12:36 | 19.52117 | -98.22979 | 24843 ft | 443 kts | 66° |
| 2026-04-25 12:36 | 19.53222 | -98.19971 | 25130 ft | 446 kts | 66° |
| 2026-04-25 12:36 | 19.54352 | -98.16887 | 25406 ft | 449 kts | 66° |
| 2026-04-25 12:37 | 19.55485 | -98.13793 | 25676 ft | 452 kts | 66° |
| 2026-04-25 12:37 | 19.56625 | -98.10677 | 25953 ft | 454 kts | 66° |
| 2026-04-25 12:37 | 19.57771 | -98.07541 | 26222 ft | 457 kts | 66° |
| 2026-04-25 12:37 | 19.58922 | -98.04391 | 26497 ft | 460 kts | 66° |
| 2026-04-25 12:38 | 19.60088 | -98.01224 | 26758 ft | 461 kts | 65° |
| 2026-04-25 12:38 | 19.61477 | -97.98150 | 26995 ft | 463 kts | 61° |
| 2026-04-25 12:38 | 19.62923 | -97.95089 | 27246 ft | 465 kts | 61° |
| 2026-04-25 12:38 | 19.64376 | -97.92014 | 27483 ft | 468 kts | 61° |
| 2026-04-25 12:39 | 19.65839 | -97.88918 | 27735 ft | 470 kts | 61° |
| 2026-04-25 12:39 | 19.67308 | -97.85810 | 27983 ft | 472 kts | 60° |
| 2026-04-25 12:39 | 19.68768 | -97.82721 | 28222 ft | 475 kts | 61° |
| 2026-04-25 12:39 | 19.70247 | -97.79581 | 28455 ft | 477 kts | 61° |
| 2026-04-25 12:40 | 19.71737 | -97.76413 | 28701 ft | 480 kts | 61° |
| 2026-04-25 12:40 | 19.73225 | -97.73244 | 28923 ft | 482 kts | 61° |
| 2026-04-25 12:40 | 19.74724 | -97.70050 | 29150 ft | 484 kts | 61° |
| 2026-04-25 12:40 | 19.76226 | -97.66847 | 29369 ft | 486 kts | 61° |
| 2026-04-25 12:41 | 19.77737 | -97.63625 | 29589 ft | 488 kts | 61° |
| 2026-04-25 12:41 | 19.79251 | -97.60392 | 29799 ft | 490 kts | 61° |
| 2026-04-25 12:41 | 19.80777 | -97.57135 | 30032 ft | 492 kts | 61° |
| 2026-04-25 12:41 | 19.82306 | -97.53870 | 30243 ft | 494 kts | 61° |
| 2026-04-25 12:42 | 19.83842 | -97.50592 | 30476 ft | 496 kts | 61° |
| 2026-04-25 12:42 | 19.84859 | -97.48422 | 30679 ft | 495 kts | 61° |
| 2026-04-25 12:42 | 19.86910 | -97.44044 | 31148 ft | 494 kts | 61° |
| 2026-04-25 12:42 | 19.88416 | -97.40822 | 31499 ft | 492 kts | 61° |
| 2026-04-25 12:43 | 19.89954 | -97.37528 | 31851 ft | 491 kts | 61° |
| 2026-04-25 12:43 | 19.91468 | -97.34280 | 32168 ft | 490 kts | 61° |
| 2026-04-25 12:43 | 19.94466 | -97.27849 | 32811 ft | 488 kts | 61° |
| 2026-04-25 12:44 | 19.95969 | -97.24620 | 33134 ft | 486 kts | 60° |
| 2026-04-25 12:44 | 19.97468 | -97.21399 | 33452 ft | 485 kts | 60° |
| 2026-04-25 12:44 | 20.00447 | -97.14987 | 34053 ft | 482 kts | 60° |
| 2026-04-25 12:45 | 20.01929 | -97.11792 | 34330 ft | 482 kts | 60° |
| 2026-04-25 12:45 | 20.03419 | -97.08589 | 34549 ft | 483 kts | 60° |
| 2026-04-25 12:45 | 20.06396 | -97.02180 | 34806 ft | 482 kts | 60° |
| 2026-04-25 12:46 | 20.09353 | -96.95786 | 34776 ft | 481 kts | 60° |
| 2026-04-25 12:46 | 20.12311 | -96.89405 | 34768 ft | 481 kts | 60° |
| 2026-04-25 12:47 | 20.15265 | -96.83027 | 34768 ft | 481 kts | 60° |
| 2026-04-25 12:47 | 20.18200 | -96.76622 | 34765 ft | 482 kts | 64° |
| 2026-04-25 12:48 | 20.20008 | -96.69725 | 34771 ft | 488 kts | 77° |
| 2026-04-25 12:48 | 20.21241 | -96.62609 | 34775 ft | 489 kts | 77° |
| 2026-04-25 12:49 | 20.22489 | -96.55539 | 34781 ft | 489 kts | 77° |
| 2026-04-25 12:49 | 20.23731 | -96.48418 | 34786 ft | 489 kts | 77° |
| 2026-04-25 12:50 | 20.24965 | -96.41280 | 34790 ft | 490 kts | 77° |
| 2026-04-25 12:50 | 20.26192 | -96.34149 | 34798 ft | 490 kts | 77° |
| 2026-04-25 12:51 | 20.27427 | -96.27008 | 34796 ft | 490 kts | 77° |
| 2026-04-25 12:51 | 20.28655 | -96.19869 | 34794 ft | 490 kts | 77° |
| 2026-04-25 12:52 | 20.29885 | -96.12721 | 34800 ft | 489 kts | 77° |
| 2026-04-25 12:52 | 20.31105 | -96.05624 | 34794 ft | 489 kts | 77° |
| 2026-04-25 12:53 | 20.32322 | -95.98499 | 34795 ft | 489 kts | 77° |
| 2026-04-25 12:53 | 20.33537 | -95.91358 | 34791 ft | 489 kts | 77° |
| 2026-04-25 12:54 | 20.34749 | -95.84229 | 34791 ft | 489 kts | 77° |
| 2026-04-25 12:54 | 20.35962 | -95.77087 | 34788 ft | 489 kts | 77° |
| 2026-04-25 12:55 | 20.36965 | -95.71158 | 34787 ft | 489 kts | 77° |
| 2026-04-25 12:55 | 20.38362 | -95.62861 | 34785 ft | 490 kts | 77° |
| 2026-04-25 12:56 | 20.39564 | -95.55709 | 34784 ft | 490 kts | 77° |
| 2026-04-25 12:56 | 20.40770 | -95.48550 | 34786 ft | 491 kts | 77° |
| 2026-04-25 12:57 | 20.41973 | -95.41386 | 34786 ft | 491 kts | 77° |
| 2026-04-25 12:57 | 20.43165 | -95.34208 | 34791 ft | 491 kts | 78° |
| 2026-04-25 12:58 | 20.44356 | -95.27036 | 34788 ft | 491 kts | 78° |
| 2026-04-25 12:58 | 20.45541 | -95.19900 | 34786 ft | 492 kts | 77° |
| 2026-04-25 12:59 | 20.46744 | -95.12674 | 34785 ft | 492 kts | 78° |
| 2026-04-25 12:59 | 20.47933 | -95.05478 | 34783 ft | 493 kts | 78° |
| 2026-04-25 13:00 | 20.48720 | -95.00716 | 34782 ft | 493 kts | 78° |
| 2026-04-25 13:00 | 20.50229 | -94.91099 | 34787 ft | 494 kts | 78° |
| 2026-04-25 13:01 | 20.51319 | -94.83853 | 34787 ft | 495 kts | 78° |
| 2026-04-25 13:01 | 20.52414 | -94.76617 | 34783 ft | 494 kts | 78° |
| 2026-04-25 13:02 | 20.53523 | -94.69367 | 34791 ft | 495 kts | 78° |
| 2026-04-25 13:02 | 20.54625 | -94.62123 | 34796 ft | 495 kts | 78° |
| 2026-04-25 13:03 | 20.55724 | -94.54863 | 34795 ft | 495 kts | 78° |
| 2026-04-25 13:03 | 20.56820 | -94.47599 | 34799 ft | 496 kts | 78° |
| 2026-04-25 13:04 | 20.57914 | -94.40333 | 34807 ft | 496 kts | 78° |
| 2026-04-25 13:04 | 20.58994 | -94.33106 | 34815 ft | 496 kts | 79° |
| 2026-04-25 13:05 | 20.60081 | -94.25828 | 34831 ft | 496 kts | 78° |
| 2026-04-25 13:05 | 20.61170 | -94.18556 | 34830 ft | 496 kts | 78° |
| 2026-04-25 13:06 | 20.62254 | -94.11277 | 34830 ft | 496 kts | 79° |
| 2026-04-25 13:06 | 20.63327 | -94.04006 | 34826 ft | 496 kts | 79° |
| 2026-04-25 13:07 | 20.64403 | -93.96733 | 34827 ft | 496 kts | 79° |
| 2026-04-25 13:07 | 20.65476 | -93.89463 | 34830 ft | 496 kts | 79° |
| 2026-04-25 13:08 | 20.66542 | -93.82182 | 34830 ft | 496 kts | 79° |
| 2026-04-25 13:08 | 20.67615 | -93.74900 | 34834 ft | 497 kts | 79° |
| 2026-04-25 13:09 | 20.68687 | -93.67610 | 34845 ft | 497 kts | 79° |
| 2026-04-25 13:09 | 20.69757 | -93.60307 | 34853 ft | 498 kts | 79° |
| 2026-04-25 13:10 | 20.70814 | -93.53039 | 34861 ft | 498 kts | 79° |
| 2026-04-25 13:10 | 20.71868 | -93.45718 | 34862 ft | 499 kts | 79° |
| 2026-04-25 13:11 | 20.72919 | -93.38383 | 34865 ft | 499 kts | 79° |
| 2026-04-25 13:11 | 20.73979 | -93.31054 | 34867 ft | 500 kts | 79° |
| 2026-04-25 13:12 | 20.75030 | -93.23714 | 34870 ft | 500 kts | 79° |
| 2026-04-25 13:12 | 20.75728 | -93.18794 | 34870 ft | 500 kts | 79° |
| 2026-04-25 13:13 | 20.77128 | -93.09022 | 34867 ft | 500 kts | 79° |
| 2026-04-25 13:13 | 20.78176 | -93.01679 | 34866 ft | 500 kts | 79° |
| 2026-04-25 13:14 | 20.79211 | -92.94377 | 34870 ft | 500 kts | 79° |
| 2026-04-25 13:14 | 20.80242 | -92.87023 | 34870 ft | 500 kts | 79° |
| 2026-04-25 13:15 | 20.81276 | -92.79680 | 34870 ft | 500 kts | 79° |
| 2026-04-25 13:15 | 20.82317 | -92.72328 | 34872 ft | 500 kts | 79° |
| 2026-04-25 13:16 | 20.83169 | -92.66210 | 34867 ft | 500 kts | 79° |
| 2026-04-25 13:16 | 20.84195 | -92.58851 | 34868 ft | 500 kts | 79° |
| 2026-04-25 13:17 | 20.85218 | -92.51488 | 34871 ft | 500 kts | 79° |
| 2026-04-25 13:17 | 20.86240 | -92.44126 | 34872 ft | 500 kts | 79° |
| 2026-04-25 13:18 | 20.87258 | -92.36764 | 34872 ft | 500 kts | 79° |
| 2026-04-25 13:18 | 20.88264 | -92.29451 | 34874 ft | 500 kts | 79° |
| 2026-04-25 13:19 | 20.89270 | -92.22087 | 34876 ft | 500 kts | 79° |
| 2026-04-25 13:19 | 20.90110 | -92.15919 | 34874 ft | 501 kts | 79° |
| 2026-04-25 13:20 | 20.91286 | -92.07356 | 34877 ft | 501 kts | 79° |
| 2026-04-25 13:20 | 20.92303 | -91.99937 | 34877 ft | 501 kts | 79° |
| 2026-04-25 13:21 | 20.93291 | -91.92604 | 34869 ft | 501 kts | 79° |
| 2026-04-25 13:21 | 20.94281 | -91.85218 | 34868 ft | 502 kts | 79° |
| 2026-04-25 13:22 | 20.95277 | -91.77825 | 34873 ft | 502 kts | 79° |
| 2026-04-25 13:23 | 20.96776 | -91.66715 | 34879 ft | 503 kts | 79° |
| 2026-04-25 13:23 | 20.97770 | -91.59310 | 34880 ft | 503 kts | 79° |
| 2026-04-25 13:24 | 20.98750 | -91.51888 | 34885 ft | 504 kts | 79° |
| 2026-04-25 13:24 | 20.99735 | -91.44456 | 34888 ft | 504 kts | 79° |
| 2026-04-25 13:25 | 21.00717 | -91.37029 | 34889 ft | 504 kts | 80° |
| 2026-04-25 13:25 | 21.01689 | -91.29647 | 34887 ft | 504 kts | 79° |
| 2026-04-25 13:26 | 21.02668 | -91.22222 | 34887 ft | 504 kts | 79° |
| 2026-04-25 13:26 | 21.03645 | -91.14787 | 34884 ft | 504 kts | 80° |
| 2026-04-25 13:27 | 21.04612 | -91.07353 | 34884 ft | 504 kts | 80° |
| 2026-04-25 13:27 | 21.05577 | -90.99910 | 34884 ft | 504 kts | 80° |
| 2026-04-25 13:28 | 21.06530 | -90.92518 | 34881 ft | 504 kts | 80° |
| 2026-04-25 13:28 | 21.07494 | -90.85072 | 34885 ft | 504 kts | 79° |
| 2026-04-25 13:29 | 21.08451 | -90.77624 | 34889 ft | 505 kts | 80° |
| 2026-04-25 13:29 | 21.09406 | -90.70174 | 34893 ft | 505 kts | 80° |
| 2026-04-25 13:30 | 21.10834 | -90.58997 | 34893 ft | 505 kts | 80° |
| 2026-04-25 13:31 | 21.12249 | -90.47795 | 34898 ft | 506 kts | 80° |
| 2026-04-25 13:31 | 21.13190 | -90.40327 | 34901 ft | 506 kts | 80° |
| 2026-04-25 13:32 | 21.14129 | -90.32857 | 34898 ft | 506 kts | 80° |
| 2026-04-25 13:32 | 21.15062 | -90.25416 | 34900 ft | 507 kts | 80° |
| 2026-04-25 13:33 | 21.15993 | -90.17936 | 34902 ft | 507 kts | 80° |
| 2026-04-25 13:33 | 21.16931 | -90.10434 | 34903 ft | 507 kts | 80° |
| 2026-04-25 13:34 | 21.17861 | -90.02945 | 34901 ft | 508 kts | 80° |
| 2026-04-25 13:34 | 21.18787 | -89.95493 | 34900 ft | 508 kts | 80° |
| 2026-04-25 13:35 | 21.19712 | -89.87988 | 34893 ft | 508 kts | 80° |
| 2026-04-25 13:35 | 21.20631 | -89.80471 | 34895 ft | 509 kts | 80° |
| 2026-04-25 13:36 | 21.21547 | -89.72951 | 34896 ft | 509 kts | 80° |
| 2026-04-25 13:36 | 21.22458 | -89.65417 | 34896 ft | 510 kts | 80° |
| 2026-04-25 13:37 | 21.23374 | -89.57890 | 34896 ft | 509 kts | 80° |
| 2026-04-25 13:37 | 21.24290 | -89.50354 | 34898 ft | 510 kts | 80° |
| 2026-04-25 13:38 | 21.25199 | -89.42804 | 34900 ft | 510 kts | 80° |
| 2026-04-25 13:38 | 21.25656 | -89.39037 | 34588 ft | 511 kts | 80° |
| 2026-04-25 13:38 | 21.26115 | -89.35222 | 33752 ft | 516 kts | 80° |
| 2026-04-25 13:38 | 21.26565 | -89.31417 | 33249 ft | 514 kts | 80° |
| 2026-04-25 13:39 | 21.27006 | -89.27672 | 32681 ft | 512 kts | 80° |
| 2026-04-25 13:39 | 21.27454 | -89.23880 | 32147 ft | 510 kts | 80° |
| 2026-04-25 13:39 | 21.27902 | -89.20120 | 31595 ft | 507 kts | 79° |
| 2026-04-25 13:39 | 21.28346 | -89.16391 | 31189 ft | 501 kts | 79° |
| 2026-04-25 13:40 | 21.28780 | -89.12705 | 30745 ft | 496 kts | 79° |
| 2026-04-25 13:40 | 21.29210 | -89.09056 | 30251 ft | 492 kts | 79° |
| 2026-04-25 13:40 | 21.29638 | -89.05428 | 29783 ft | 487 kts | 79° |
| 2026-04-25 13:40 | 21.30059 | -89.01838 | 29298 ft | 483 kts | 79° |
| 2026-04-25 13:41 | 21.30474 | -88.98282 | 28823 ft | 478 kts | 79° |
| 2026-04-25 13:41 | 21.30885 | -88.94763 | 28342 ft | 474 kts | 79° |
| 2026-04-25 13:41 | 21.31294 | -88.91265 | 27867 ft | 470 kts | 79° |
| 2026-04-25 13:41 | 21.31700 | -88.87804 | 27391 ft | 466 kts | 79° |
| 2026-04-25 13:42 | 21.32102 | -88.84371 | 26893 ft | 462 kts | 79° |
| 2026-04-25 13:42 | 21.32499 | -88.80968 | 26419 ft | 458 kts | 79° |
| 2026-04-25 13:42 | 21.32893 | -88.77596 | 25954 ft | 453 kts | 79° |
| 2026-04-25 13:42 | 21.33285 | -88.74249 | 25498 ft | 449 kts | 79° |
| 2026-04-25 13:43 | 21.33669 | -88.70945 | 25047 ft | 445 kts | 79° |
| 2026-04-25 13:43 | 21.34045 | -88.67713 | 24387 ft | 439 kts | 79° |
| 2026-04-25 13:43 | 21.34418 | -88.64496 | 23489 ft | 431 kts | 79° |
| 2026-04-25 13:43 | 21.34775 | -88.61360 | 22905 ft | 414 kts | 79° |
| 2026-04-25 13:44 | 21.35116 | -88.58328 | 22463 ft | 408 kts | 79° |
| 2026-04-25 13:44 | 21.35459 | -88.55308 | 21991 ft | 407 kts | 79° |
| 2026-04-25 13:44 | 21.35807 | -88.52302 | 21501 ft | 405 kts | 79° |
| 2026-04-25 13:44 | 21.36155 | -88.49306 | 21017 ft | 403 kts | 79° |
| 2026-04-25 13:45 | 21.36499 | -88.46332 | 20541 ft | 401 kts | 79° |
| 2026-04-25 13:45 | 21.36787 | -88.43362 | 20064 ft | 401 kts | 85° |
| 2026-04-25 13:45 | 21.36597 | -88.40380 | 19691 ft | 399 kts | 98° |
| 2026-04-25 13:45 | 21.35997 | -88.37514 | 19487 ft | 390 kts | 101° |
| 2026-04-25 13:46 | 21.35392 | -88.34683 | 19084 ft | 387 kts | 100° |
| 2026-04-25 13:46 | 21.34801 | -88.31885 | 18668 ft | 383 kts | 100° |
| 2026-04-25 13:46 | 21.34219 | -88.29106 | 18243 ft | 380 kts | 100° |
| 2026-04-25 13:46 | 21.33642 | -88.26350 | 17822 ft | 377 kts | 100° |
| 2026-04-25 13:47 | 21.33067 | -88.23609 | 17417 ft | 375 kts | 100° |
| 2026-04-25 13:47 | 21.32495 | -88.20894 | 16993 ft | 372 kts | 100° |
| 2026-04-25 13:47 | 21.31932 | -88.18229 | 16579 ft | 369 kts | 100° |
| 2026-04-25 13:47 | 21.31365 | -88.15551 | 16170 ft | 367 kts | 100° |
| 2026-04-25 13:48 | 21.30800 | -88.12892 | 15779 ft | 364 kts | 100° |
| 2026-04-25 13:48 | 21.30239 | -88.10254 | 15370 ft | 361 kts | 100° |
| 2026-04-25 13:48 | 21.29682 | -88.07641 | 14955 ft | 359 kts | 100° |
| 2026-04-25 13:48 | 21.29122 | -88.05043 | 14556 ft | 356 kts | 100° |
| 2026-04-25 13:49 | 21.28560 | -88.02468 | 14137 ft | 353 kts | 100° |
| 2026-04-25 13:49 | 21.27997 | -87.99913 | 13739 ft | 351 kts | 101° |
| 2026-04-25 13:49 | 21.27434 | -87.97368 | 13336 ft | 349 kts | 101° |
| 2026-04-25 13:49 | 21.26877 | -87.94847 | 12934 ft | 346 kts | 101° |
| 2026-04-25 13:50 | 21.26329 | -87.92356 | 12359 ft | 342 kts | 100° |
| 2026-04-25 13:50 | 21.25787 | -87.89906 | 11576 ft | 336 kts | 100° |
| 2026-04-25 13:50 | 21.25254 | -87.87493 | 10925 ft | 327 kts | 101° |
| 2026-04-25 13:50 | 21.24740 | -87.85158 | 10291 ft | 317 kts | 101° |
| 2026-04-25 13:51 | 21.24240 | -87.82890 | 9917 ft | 308 kts | 101° |
| 2026-04-25 13:51 | 21.23746 | -87.80651 | 9773 ft | 309 kts | 102° |
| 2026-04-25 13:51 | 21.23252 | -87.78414 | 9446 ft | 307 kts | 102° |
| 2026-04-25 13:51 | 21.22761 | -87.76195 | 9087 ft | 305 kts | 102° |
| 2026-04-25 13:52 | 21.22279 | -87.74018 | 8722 ft | 303 kts | 102° |
| 2026-04-25 13:52 | 21.21973 | -87.71795 | 8359 ft | 296 kts | 89° |
| 2026-04-25 13:52 | 21.22000 | -87.69627 | 8012 ft | 293 kts | 88° |
| 2026-04-25 13:52 | 21.22033 | -87.67445 | 7661 ft | 291 kts | 88° |
| 2026-04-25 13:53 | 21.22060 | -87.65334 | 7473 ft | 275 kts | 88° |
| 2026-04-25 13:53 | 21.22080 | -87.63338 | 7358 ft | 261 kts | 88° |
| 2026-04-25 13:53 | 21.22100 | -87.61419 | 7180 ft | 254 kts | 88° |
| 2026-04-25 13:53 | 21.22121 | -87.59540 | 6896 ft | 251 kts | 88° |
| 2026-04-25 13:54 | 21.22143 | -87.57674 | 6594 ft | 249 kts | 88° |
| 2026-04-25 13:54 | 21.22168 | -87.55826 | 6283 ft | 247 kts | 88° |
| 2026-04-25 13:54 | 21.22192 | -87.53994 | 5971 ft | 245 kts | 88° |
| 2026-04-25 13:54 | 21.22214 | -87.52139 | 5389 ft | 255 kts | 89° |
| 2026-04-25 13:55 | 21.22234 | -87.50217 | 4929 ft | 259 kts | 89° |
| 2026-04-25 13:55 | 21.22255 | -87.48288 | 4588 ft | 258 kts | 89° |
| 2026-04-25 13:55 | 21.22278 | -87.46387 | 4268 ft | 250 kts | 90° |
| 2026-04-25 13:55 | 21.22298 | -87.44558 | 3971 ft | 241 kts | 90° |
| 2026-04-25 13:56 | 21.22316 | -87.42799 | 3690 ft | 232 kts | 90° |
| 2026-04-25 13:56 | 21.22333 | -87.41077 | 3421 ft | 230 kts | 90° |
| 2026-04-25 13:56 | 21.22351 | -87.39381 | 3299 ft | 228 kts | 91° |
| 2026-04-25 13:56 | 21.22371 | -87.37681 | 3203 ft | 228 kts | 90° |
| 2026-04-25 13:57 | 21.22393 | -87.35987 | 3102 ft | 227 kts | 90° |
| 2026-04-25 13:57 | 21.22400 | -87.35436 | 3072 ft | 226 kts | 90° |
| 2026-04-25 13:57 | 21.22337 | -87.32641 | 3033 ft | 226 kts | 95° |
| 2026-04-25 13:57 | 21.22226 | -87.30960 | 3030 ft | 226 kts | 96° |
| 2026-04-25 13:58 | 21.22105 | -87.29272 | 3032 ft | 227 kts | 95° |
| 2026-04-25 13:58 | 21.21988 | -87.27589 | 3028 ft | 226 kts | 95° |
| 2026-04-25 13:58 | 21.21874 | -87.25906 | 3033 ft | 226 kts | 95° |
| 2026-04-25 13:58 | 21.21764 | -87.24227 | 3037 ft | 226 kts | 95° |
| 2026-04-25 13:59 | 21.21654 | -87.22556 | 3051 ft | 220 kts | 95° |
| 2026-04-25 13:59 | 21.21549 | -87.20956 | 3042 ft | 212 kts | 95° |
| 2026-04-25 13:59 | 21.21448 | -87.19388 | 3040 ft | 211 kts | 95° |
| 2026-04-25 13:59 | 21.21350 | -87.17824 | 3039 ft | 210 kts | 95° |
| 2026-04-25 14:00 | 21.21181 | -87.16279 | 3038 ft | 209 kts | 105° |
| 2026-04-25 14:00 | 21.20607 | -87.14858 | 3039 ft | 208 kts | 123° |
| 2026-04-25 14:00 | 21.19805 | -87.13571 | 3039 ft | 208 kts | 123° |
| 2026-04-25 14:00 | 21.19011 | -87.12298 | 3039 ft | 208 kts | 123° |
| 2026-04-25 14:01 | 21.18197 | -87.10992 | 3041 ft | 208 kts | 124° |
| 2026-04-25 14:01 | 21.17394 | -87.09702 | 3050 ft | 208 kts | 123° |
| 2026-04-25 14:01 | 21.16588 | -87.08412 | 3053 ft | 208 kts | 123° |
| 2026-04-25 14:01 | 21.15786 | -87.07123 | 2982 ft | 208 kts | 123° |
| 2026-04-25 14:02 | 21.14988 | -87.05842 | 2780 ft | 202 kts | 123° |
| 2026-04-25 14:02 | 21.14253 | -87.04665 | 2677 ft | 184 kts | 124° |
| 2026-04-25 14:02 | 21.13785 | -87.03916 | 2577 ft | 174 kts | 123° |
| 2026-04-25 14:02 | 21.13351 | -87.03219 | 2493 ft | 166 kts | 123° |
| 2026-04-25 14:03 | 21.12333 | -87.01587 | 2152 ft | 155 kts | 123° |
| 2026-04-25 14:03 | 21.11735 | -87.00630 | 1876 ft | 154 kts | 123° |
| 2026-04-25 14:03 | 21.11139 | -86.99676 | 1600 ft | 154 kts | 123° |
| 2026-04-25 14:03 | 21.10553 | -86.98737 | 1403 ft | 152 kts | 123° |
| 2026-04-25 14:04 | 21.09963 | -86.97791 | 1344 ft | 153 kts | 123° |
| 2026-04-25 14:04 | 21.09368 | -86.96839 | 1338 ft | 153 kts | 123° |
| 2026-04-25 14:04 | 21.08776 | -86.95891 | 1341 ft | 153 kts | 123° |
| 2026-04-25 14:04 | 21.08196 | -86.94963 | 1274 ft | 147 kts | 124° |
| 2026-04-25 14:05 | 21.07638 | -86.94068 | 1108 ft | 143 kts | 123° |
| 2026-04-25 14:05 | 21.07101 | -86.93178 | 936 ft | 141 kts | 120° |
| 2026-04-25 14:05 | 21.06558 | -86.92324 | 773 ft | 141 kts | 124° |
| 2026-04-25 14:05 | 21.05998 | -86.91466 | 610 ft | 141 kts | 122° |
| 2026-04-25 14:06 | 21.05481 | -86.90577 | 434 ft | 141 kts | 123° |
| 2026-04-25 14:06 | 21.04923 | -86.89715 | 252 ft | 141 kts | 123° |
| 2026-04-25 14:06 | 21.04374 | -86.88847 | 63 ft | 140 kts | 124° |
| 2026-04-25 14:06 | 21.04062 | -86.88322 | 37 ft | 109 kts | 122° |
| 2026-04-25 14:07 | 21.03796 | -86.87888 | 37 ft | 58 kts | 123° |
| 2026-04-25 14:07 | 21.03601 | -86.87527 | 41 ft | 46 kts | 105° |
| 2026-04-25 14:07 | 21.03583 | -86.87321 | 42 ft | 22 kts | 99° |
| 2026-04-25 14:07 | 21.03530 | -86.87179 | 40 ft | 15 kts | 114° |
| 2026-04-25 14:08 | 21.03542 | -86.87117 | 41 ft | 9 kts | 28° |
| 2026-04-25 14:08 | 21.03568 | -86.87117 | 43 ft | 1 kts | 352° |
| 2026-04-25 14:08 | 21.03571 | -86.87117 | 43 ft | 0 kts | 353° |
| 2026-04-25 14:08 | 21.03586 | -86.87115 | 41 ft | 5 kts | 16° |
| 2026-04-25 14:09 | 21.03623 | -86.87091 | 43 ft | 6 kts | 32° |
| 2026-04-25 14:09 | 21.03647 | -86.87073 | 43 ft | 3 kts | 33° |
| 2026-04-25 14:09 | 21.03656 | -86.87067 | 43 ft | 0 kts | 34° |